sensor_id;sensor_type;location;lat;lon;timestamp;pressure;altitude;pressure_sealevel;temperature
73685;BMP280;61985;51.070;14.064;2023-02-28T00:00:16;99920.13;;;-2.07
73685;BMP280;61985;51.070;14.064;2023-02-28T00:02:42;99915.53;;;-2.16
73685;BMP280;61985;51.070;14.064;2023-02-28T00:05:10;99914.34;;;-2.09
73685;BMP280;61985;51.070;14.064;2023-02-28T00:07:36;99921.91;;;-2.17
73685;BMP280;61985;51.070;14.064;2023-02-28T00:10:03;99923.16;;;-2.14
73685;BMP280;61985;51.070;14.064;2023-02-28T00:12:29;99915.25;;;-2.14
73685;BMP280;61985;51.070;14.064;2023-02-28T00:14:54;99918.19;;;-2.16
73685;BMP280;61985;51.070;14.064;2023-02-28T00:17:20;99918.09;;;-2.10
73685;BMP280;61985;51.070;14.064;2023-02-28T00:19:48;99906.84;;;-2.16
73685;BMP280;61985;51.070;14.064;2023-02-28T00:22:14;99909.78;;;-2.18
73685;BMP280;61985;51.070;14.064;2023-02-28T00:24:40;99912.91;;;-2.16
73685;BMP280;61985;51.070;14.064;2023-02-28T00:27:05;99910.69;;;-2.22
73685;BMP280;61985;51.070;14.064;2023-02-28T00:29:31;99911.00;;;-2.24
73685;BMP280;61985;51.070;14.064;2023-02-28T00:31:56;99898.84;;;-2.25
73685;BMP280;61985;51.070;14.064;2023-02-28T00:34:21;99896.66;;;-2.32
73685;BMP280;61985;51.070;14.064;2023-02-28T00:36:47;99903.00;;;-2.33
73685;BMP280;61985;51.070;14.064;2023-02-28T00:39:15;99903.03;;;-2.46
73685;BMP280;61985;51.070;14.064;2023-02-28T00:41:41;99902.84;;;-2.50
73685;BMP280;61985;51.070;14.064;2023-02-28T00:44:06;99895.94;;;-2.60
73685;BMP280;61985;51.070;14.064;2023-02-28T00:46:31;99901.66;;;-2.66
73685;BMP280;61985;51.070;14.064;2023-02-28T00:48:57;99891.88;;;-2.66
73685;BMP280;61985;51.070;14.064;2023-02-28T00:51:22;99898.31;;;-2.72
73685;BMP280;61985;51.070;14.064;2023-02-28T00:53:47;99898.91;;;-2.75
73685;BMP280;61985;51.070;14.064;2023-02-28T00:56:13;99899.09;;;-2.86
73685;BMP280;61985;51.070;14.064;2023-02-28T00:58:39;99894.94;;;-2.87
73685;BMP280;61985;51.070;14.064;2023-02-28T01:01:05;99900.88;;;-2.95
73685;BMP280;61985;51.070;14.064;2023-02-28T01:03:31;99891.72;;;-3.11
73685;BMP280;61985;51.070;14.064;2023-02-28T01:05:56;99892.91;;;-3.17
73685;BMP280;61985;51.070;14.064;2023-02-28T01:08:22;99900.00;;;-3.18
73685;BMP280;61985;51.070;14.064;2023-02-28T01:10:48;99896.00;;;-3.15
73685;BMP280;61985;51.070;14.064;2023-02-28T01:13:14;99896.91;;;-3.20
73685;BMP280;61985;51.070;14.064;2023-02-28T01:15:50;99897.88;;;-3.16
73685;BMP280;61985;51.070;14.064;2023-02-28T01:18:20;99896.31;;;-3.17
73685;BMP280;61985;51.070;14.064;2023-02-28T01:20:49;99890.25;;;-3.17
73685;BMP280;61985;51.070;14.064;2023-02-28T01:23:16;99900.88;;;-3.23
73685;BMP280;61985;51.070;14.064;2023-02-28T01:25:42;99894.53;;;-3.35
73685;BMP280;61985;51.070;14.064;2023-02-28T01:28:10;99892.97;;;-3.50
73685;BMP280;61985;51.070;14.064;2023-02-28T01:30:35;99889.50;;;-3.65
73685;BMP280;61985;51.070;14.064;2023-02-28T01:33:01;99889.09;;;-3.72
73685;BMP280;61985;51.070;14.064;2023-02-28T01:35:26;99890.38;;;-3.69
73685;BMP280;61985;51.070;14.064;2023-02-28T01:37:51;99886.66;;;-3.82
73685;BMP280;61985;51.070;14.064;2023-02-28T01:40:17;99887.34;;;-3.77
73685;BMP280;61985;51.070;14.064;2023-02-28T01:42:42;99884.72;;;-3.77
73685;BMP280;61985;51.070;14.064;2023-02-28T01:45:27;99884.72;;;-3.77
73685;BMP280;61985;51.070;14.064;2023-02-28T01:47:56;99883.44;;;-3.79
73685;BMP280;61985;51.070;14.064;2023-02-28T01:50:25;99879.72;;;-3.78
73685;BMP280;61985;51.070;14.064;2023-02-28T01:52:54;99890.91;;;-4.00
73685;BMP280;61985;51.070;14.064;2023-02-28T01:55:21;99879.00;;;-3.98
73685;BMP280;61985;51.070;14.064;2023-02-28T01:57:51;99882.47;;;-4.02
73685;BMP280;61985;51.070;14.064;2023-02-28T02:00:21;99879.53;;;-4.15
73685;BMP280;61985;51.070;14.064;2023-02-28T02:02:51;99881.97;;;-4.18
73685;BMP280;61985;51.070;14.064;2023-02-28T02:05:24;99876.06;;;-4.29
73685;BMP280;61985;51.070;14.064;2023-02-28T02:07:54;99879.94;;;-4.27
73685;BMP280;61985;51.070;14.064;2023-02-28T02:10:27;99876.41;;;-4.36
73685;BMP280;61985;51.070;14.064;2023-02-28T02:13:04;99885.69;;;-4.44
73685;BMP280;61985;51.070;14.064;2023-02-28T02:15:47;99883.44;;;-4.50
73685;BMP280;61985;51.070;14.064;2023-02-28T02:21:19;99886.06;;;-4.50
73685;BMP280;61985;51.070;14.064;2023-02-28T02:35:24;99877.06;;;-4.87
73685;BMP280;61985;51.070;14.064;2023-02-28T02:38:14;99881.06;;;-5.14
73685;BMP280;61985;51.070;14.064;2023-02-28T02:40:51;99870.56;;;-5.14
73685;BMP280;61985;51.070;14.064;2023-02-28T02:43:24;99870.84;;;-5.21
73685;BMP280;61985;51.070;14.064;2023-02-28T02:45:54;99869.28;;;-5.46
73685;BMP280;61985;51.070;14.064;2023-02-28T02:48:25;99879.66;;;-5.60
73685;BMP280;61985;51.070;14.064;2023-02-28T02:50:58;99875.28;;;-5.70
73685;BMP280;61985;51.070;14.064;2023-02-28T02:53:31;99876.84;;;-5.69
73685;BMP280;61985;51.070;14.064;2023-02-28T02:55:58;99868.22;;;-5.74
73685;BMP280;61985;51.070;14.064;2023-02-28T02:58:27;99876.31;;;-5.66
73685;BMP280;61985;51.070;14.064;2023-02-28T03:00:57;99876.69;;;-5.48
73685;BMP280;61985;51.070;14.064;2023-02-28T03:03:23;99876.94;;;-5.79
73685;BMP280;61985;51.070;14.064;2023-02-28T03:05:56;99890.00;;;-5.74
73685;BMP280;61985;51.070;14.064;2023-02-28T03:08:21;99882.19;;;-5.79
73685;BMP280;61985;51.070;14.064;2023-02-28T03:10:52;99874.34;;;-5.84
73685;BMP280;61985;51.070;14.064;2023-02-28T03:16:34;99878.56;;;-5.88
73685;BMP280;61985;51.070;14.064;2023-02-28T03:22:08;99876.38;;;-5.76
73685;BMP280;61985;51.070;14.064;2023-02-28T03:24:52;99875.34;;;-5.75
73685;BMP280;61985;51.070;14.064;2023-02-28T03:30:11;99869.94;;;-5.89
73685;BMP280;61985;51.070;14.064;2023-02-28T03:32:58;99868.00;;;-5.83
73685;BMP280;61985;51.070;14.064;2023-02-28T03:35:30;99876.50;;;-5.91
73685;BMP280;61985;51.070;14.064;2023-02-28T03:38:29;99876.44;;;-5.86
73685;BMP280;61985;51.070;14.064;2023-02-28T03:41:23;99870.91;;;-5.79
73685;BMP280;61985;51.070;14.064;2023-02-28T03:44:10;99870.44;;;-5.87
73685;BMP280;61985;51.070;14.064;2023-02-28T03:46:44;99871.13;;;-5.76
73685;BMP280;61985;51.070;14.064;2023-02-28T03:49:17;99874.09;;;-5.88
73685;BMP280;61985;51.070;14.064;2023-02-28T03:51:45;99874.19;;;-5.98
73685;BMP280;61985;51.070;14.064;2023-02-28T03:54:15;99875.47;;;-5.90
73685;BMP280;61985;51.070;14.064;2023-02-28T03:56:48;99882.84;;;-5.98
73685;BMP280;61985;51.070;14.064;2023-02-28T03:59:36;99884.44;;;-6.02
73685;BMP280;61985;51.070;14.064;2023-02-28T04:02:01;99882.91;;;-6.08
73685;BMP280;61985;51.070;14.064;2023-02-28T04:04:28;99880.09;;;-6.17
73685;BMP280;61985;51.070;14.064;2023-02-28T04:07:03;99881.88;;;-6.12
73685;BMP280;61985;51.070;14.064;2023-02-28T04:09:29;99881.91;;;-6.17
73685;BMP280;61985;51.070;14.064;2023-02-28T04:11:54;99884.75;;;-6.08
73685;BMP280;61985;51.070;14.064;2023-02-28T04:14:21;99884.00;;;-6.09
73685;BMP280;61985;51.070;14.064;2023-02-28T04:16:47;99890.78;;;-6.08
73685;BMP280;61985;51.070;14.064;2023-02-28T04:19:13;99880.28;;;-6.08
73685;BMP280;61985;51.070;14.064;2023-02-28T04:21:41;99880.84;;;-6.11
73685;BMP280;61985;51.070;14.064;2023-02-28T04:24:12;99894.00;;;-6.16
73685;BMP280;61985;51.070;14.064;2023-02-28T04:26:41;99892.91;;;-6.10
73685;BMP280;61985;51.070;14.064;2023-02-28T04:29:09;99905.59;;;-6.22
73685;BMP280;61985;51.070;14.064;2023-02-28T04:31:35;99909.72;;;-6.16
73685;BMP280;61985;51.070;14.064;2023-02-28T04:34:00;99907.63;;;-6.09
73685;BMP280;61985;51.070;14.064;2023-02-28T04:36:26;99915.47;;;-6.09
73685;BMP280;61985;51.070;14.064;2023-02-28T04:38:51;99912.63;;;-6.18
73685;BMP280;61985;51.070;14.064;2023-02-28T04:41:18;99913.41;;;-6.17
73685;BMP280;61985;51.070;14.064;2023-02-28T04:43:43;99911.91;;;-6.28
73685;BMP280;61985;51.070;14.064;2023-02-28T04:46:09;99900.41;;;-6.38
73685;BMP280;61985;51.070;14.064;2023-02-28T04:48:37;99907.69;;;-6.29
73685;BMP280;61985;51.070;14.064;2023-02-28T04:51:09;99910.72;;;-6.52
73685;BMP280;61985;51.070;14.064;2023-02-28T04:53:35;99905.19;;;-6.50
73685;BMP280;61985;51.070;14.064;2023-02-28T04:56:01;99907.28;;;-6.47
73685;BMP280;61985;51.070;14.064;2023-02-28T04:58:26;99910.72;;;-6.52
73685;BMP280;61985;51.070;14.064;2023-02-28T05:00:53;99905.75;;;-6.53
73685;BMP280;61985;51.070;14.064;2023-02-28T05:03:19;99909.16;;;-6.58
73685;BMP280;61985;51.070;14.064;2023-02-28T05:05:46;99906.78;;;-6.59
73685;BMP280;61985;51.070;14.064;2023-02-28T05:08:12;99901.06;;;-6.61
73685;BMP280;61985;51.070;14.064;2023-02-28T05:10:37;99910.16;;;-6.48
73685;BMP280;61985;51.070;14.064;2023-02-28T05:13:03;99909.47;;;-6.75
73685;BMP280;61985;51.070;14.064;2023-02-28T05:15:28;99905.97;;;-6.55
73685;BMP280;61985;51.070;14.064;2023-02-28T05:17:53;99904.66;;;-6.57
73685;BMP280;61985;51.070;14.064;2023-02-28T05:20:19;99910.44;;;-6.55
73685;BMP280;61985;51.070;14.064;2023-02-28T05:22:46;99910.13;;;-6.38
73685;BMP280;61985;51.070;14.064;2023-02-28T05:25:20;99912.47;;;-6.42
73685;BMP280;61985;51.070;14.064;2023-02-28T05:27:47;99909.06;;;-6.37
73685;BMP280;61985;51.070;14.064;2023-02-28T05:30:13;99913.84;;;-6.55
73685;BMP280;61985;51.070;14.064;2023-02-28T05:32:39;99919.91;;;-6.59
73685;BMP280;61985;51.070;14.064;2023-02-28T05:35:09;99921.47;;;-6.58
73685;BMP280;61985;51.070;14.064;2023-02-28T05:37:35;99909.03;;;-6.92
73685;BMP280;61985;51.070;14.064;2023-02-28T05:40:00;99908.22;;;-6.98
73685;BMP280;61985;51.070;14.064;2023-02-28T05:42:25;99916.84;;;-6.87
73685;BMP280;61985;51.070;14.064;2023-02-28T05:44:50;99911.38;;;-6.91
73685;BMP280;61985;51.070;14.064;2023-02-28T05:47:16;99911.59;;;-6.77
73685;BMP280;61985;51.070;14.064;2023-02-28T05:49:42;99916.56;;;-6.65
73685;BMP280;61985;51.070;14.064;2023-02-28T05:52:08;99922.56;;;-6.70
73685;BMP280;61985;51.070;14.064;2023-02-28T05:54:33;99914.94;;;-6.61
73685;BMP280;61985;51.070;14.064;2023-02-28T05:56:59;99916.75;;;-6.56
73685;BMP280;61985;51.070;14.064;2023-02-28T05:59:24;99920.41;;;-6.57
73685;BMP280;61985;51.070;14.064;2023-02-28T06:01:50;99924.06;;;-6.48
73685;BMP280;61985;51.070;14.064;2023-02-28T06:04:17;99927.19;;;-6.46
73685;BMP280;61985;51.070;14.064;2023-02-28T06:06:48;99932.41;;;-6.41
73685;BMP280;61985;51.070;14.064;2023-02-28T06:09:14;99928.41;;;-6.28
73685;BMP280;61985;51.070;14.064;2023-02-28T06:11:40;99937.53;;;-6.15
73685;BMP280;61985;51.070;14.064;2023-02-28T06:14:06;99930.69;;;-6.11
73685;BMP280;61985;51.070;14.064;2023-02-28T06:16:33;99944.81;;;-5.96
73685;BMP280;61985;51.070;14.064;2023-02-28T06:19:01;99938.38;;;-5.80
73685;BMP280;61985;51.070;14.064;2023-02-28T06:21:28;99944.59;;;-5.66
73685;BMP280;61985;51.070;14.064;2023-02-28T06:23:54;99956.53;;;-5.49
73685;BMP280;61985;51.070;14.064;2023-02-28T06:26:20;99943.31;;;-5.39
73685;BMP280;61985;51.070;14.064;2023-02-28T06:28:46;99949.69;;;-5.21
73685;BMP280;61985;51.070;14.064;2023-02-28T06:31:13;99963.59;;;-5.15
73685;BMP280;61985;51.070;14.064;2023-02-28T06:33:39;99967.09;;;-4.96
73685;BMP280;61985;51.070;14.064;2023-02-28T06:36:06;99960.88;;;-4.81
73685;BMP280;61985;51.070;14.064;2023-02-28T06:38:32;99972.50;;;-4.63
73685;BMP280;61985;51.070;14.064;2023-02-28T06:40:59;99974.03;;;-4.56
73685;BMP280;61985;51.070;14.064;2023-02-28T06:43:27;99980.31;;;-4.52
73685;BMP280;61985;51.070;14.064;2023-02-28T06:45:57;99975.63;;;-4.36
73685;BMP280;61985;51.070;14.064;2023-02-28T06:48:23;99988.44;;;-4.30
73685;BMP280;61985;51.070;14.064;2023-02-28T06:50:49;99983.88;;;-4.24
73685;BMP280;61985;51.070;14.064;2023-02-28T06:53:15;99976.66;;;-4.13
73685;BMP280;61985;51.070;14.064;2023-02-28T06:55:41;99986.75;;;-4.20
73685;BMP280;61985;51.070;14.064;2023-02-28T06:58:06;99988.53;;;-4.16
73685;BMP280;61985;51.070;14.064;2023-02-28T07:00:43;99983.41;;;-4.07
73685;BMP280;61985;51.070;14.064;2023-02-28T07:03:09;99979.41;;;-4.04
73685;BMP280;61985;51.070;14.064;2023-02-28T07:05:38;99986.22;;;-4.03
73685;BMP280;61985;51.070;14.064;2023-02-28T07:08:05;99991.59;;;-4.09
73685;BMP280;61985;51.070;14.064;2023-02-28T08:25:28;100027.50;;;-1.89
73685;BMP280;61985;51.070;14.064;2023-02-28T08:27:54;100023.00;;;-1.88
73685;BMP280;61985;51.070;14.064;2023-02-28T08:30:19;100027.78;;;-1.68
73685;BMP280;61985;51.070;14.064;2023-02-28T08:32:45;100025.38;;;-1.55
73685;BMP280;61985;51.070;14.064;2023-02-28T08:35:10;100031.75;;;-1.56
73685;BMP280;61985;51.070;14.064;2023-02-28T08:37:35;100028.47;;;-1.62
73685;BMP280;61985;51.070;14.064;2023-02-28T08:40:01;100023.59;;;-1.69
73685;BMP280;61985;51.070;14.064;2023-02-28T08:42:26;100021.00;;;-1.60
73685;BMP280;61985;51.070;14.064;2023-02-28T08:44:51;100026.47;;;-1.34
73685;BMP280;61985;51.070;14.064;2023-02-28T08:47:17;100029.75;;;-1.28
73685;BMP280;61985;51.070;14.064;2023-02-28T08:49:42;100032.72;;;-1.21
73685;BMP280;61985;51.070;14.064;2023-02-28T08:52:07;100029.97;;;-1.16
73685;BMP280;61985;51.070;14.064;2023-02-28T08:54:33;100031.56;;;-1.06
73685;BMP280;61985;51.070;14.064;2023-02-28T08:56:59;100037.25;;;-0.81
73685;BMP280;61985;51.070;14.064;2023-02-28T08:59:25;100035.38;;;-0.81
73685;BMP280;61985;51.070;14.064;2023-02-28T09:01:50;100031.69;;;-0.71
73685;BMP280;61985;51.070;14.064;2023-02-28T09:04:16;100031.06;;;-0.68
73685;BMP280;61985;51.070;14.064;2023-02-28T09:06:41;100031.75;;;-0.45
73685;BMP280;61985;51.070;14.064;2023-02-28T09:09:06;100027.69;;;-0.51
73685;BMP280;61985;51.070;14.064;2023-02-28T09:11:33;100033.91;;;-0.47
73685;BMP280;61985;51.070;14.064;2023-02-28T09:13:59;100023.00;;;-0.45
73685;BMP280;61985;51.070;14.064;2023-02-28T09:16:26;100028.84;;;-0.17
73685;BMP280;61985;51.070;14.064;2023-02-28T09:18:51;100034.16;;;-0.17
73685;BMP280;61985;51.070;14.064;2023-02-28T09:21:18;100030.84;;;-0.31
73685;BMP280;61985;51.070;14.064;2023-02-28T09:23:45;100037.84;;;-0.27
73685;BMP280;61985;51.070;14.064;2023-02-28T09:26:19;100030.97;;;-0.37
73685;BMP280;61985;51.070;14.064;2023-02-28T09:28:45;100038.16;;;-0.28
73685;BMP280;61985;51.070;14.064;2023-02-28T09:31:16;100032.03;;;-0.55
73685;BMP280;61985;51.070;14.064;2023-02-28T09:33:46;100027.31;;;-0.67
73685;BMP280;61985;51.070;14.064;2023-02-28T09:36:11;100029.09;;;-0.45
73685;BMP280;61985;51.070;14.064;2023-02-28T09:38:36;100014.53;;;-0.74
73685;BMP280;61985;51.070;14.064;2023-02-28T09:41:08;100010.06;;;-0.56
73685;BMP280;61985;51.070;14.064;2023-02-28T09:43:38;100013.78;;;-0.65
73685;BMP280;61985;51.070;14.064;2023-02-28T09:46:21;100018.81;;;-0.46
73685;BMP280;61985;51.070;14.064;2023-02-28T09:48:51;100021.63;;;-0.43
73685;BMP280;61985;51.070;14.064;2023-02-28T09:53:51;100033.16;;;-0.39
73685;BMP280;61985;51.070;14.064;2023-02-28T09:56:48;100031.00;;;-0.19
73685;BMP280;61985;51.070;14.064;2023-02-28T09:59:29;100032.56;;;-0.18
73685;BMP280;61985;51.070;14.064;2023-02-28T10:04:50;100033.97;;;-0.21
73685;BMP280;61985;51.070;14.064;2023-02-28T10:10:23;100034.91;;;0.01
73685;BMP280;61985;51.070;14.064;2023-02-28T10:12:53;100035.06;;;0.13
73685;BMP280;61985;51.070;14.064;2023-02-28T10:15:23;100030.53;;;0.23
73685;BMP280;61985;51.070;14.064;2023-02-28T10:17:54;100031.94;;;0.29
73685;BMP280;61985;51.070;14.064;2023-02-28T10:20:22;100029.41;;;0.32
73685;BMP280;61985;51.070;14.064;2023-02-28T10:23:00;100030.66;;;0.26
73685;BMP280;61985;51.070;14.064;2023-02-28T10:25:34;100031.72;;;0.43
73685;BMP280;61985;51.070;14.064;2023-02-28T10:28:11;100029.25;;;0.38
73685;BMP280;61985;51.070;14.064;2023-02-28T10:30:41;100034.31;;;0.60
73685;BMP280;61985;51.070;14.064;2023-02-28T10:33:16;100038.25;;;1.01
73685;BMP280;61985;51.070;14.064;2023-02-28T10:35:43;100033.25;;;1.08
73685;BMP280;61985;51.070;14.064;2023-02-28T10:38:15;100031.25;;;0.97
73685;BMP280;61985;51.070;14.064;2023-02-28T10:40:41;100028.78;;;0.92
73685;BMP280;61985;51.070;14.064;2023-02-28T10:45:38;100027.16;;;0.61
73685;BMP280;61985;51.070;14.064;2023-02-28T10:48:24;100032.94;;;0.54
73685;BMP280;61985;51.070;14.064;2023-02-28T10:50:52;100024.97;;;0.54
73685;BMP280;61985;51.070;14.064;2023-02-28T10:56:00;100021.06;;;0.60
73685;BMP280;61985;51.070;14.064;2023-02-28T10:58:51;100011.41;;;0.56
73685;BMP280;61985;51.070;14.064;2023-02-28T11:01:33;100012.97;;;0.57
73685;BMP280;61985;51.070;14.064;2023-02-28T11:04:00;100011.88;;;0.49
73685;BMP280;61985;51.070;14.064;2023-02-28T11:06:35;100008.78;;;0.47
73685;BMP280;61985;51.070;14.064;2023-02-28T11:11:47;100010.63;;;0.55
73685;BMP280;61985;51.070;14.064;2023-02-28T11:14:28;100011.56;;;0.59
73685;BMP280;61985;51.070;14.064;2023-02-28T11:16:54;100011.69;;;0.71
73685;BMP280;61985;51.070;14.064;2023-02-28T11:19:28;100009.47;;;0.74
73685;BMP280;61985;51.070;14.064;2023-02-28T11:22:00;99996.34;;;0.77
73685;BMP280;61985;51.070;14.064;2023-02-28T11:24:57;99989.00;;;0.83
73685;BMP280;61985;51.070;14.064;2023-02-28T11:29:57;99998.03;;;1.20
73685;BMP280;61985;51.070;14.064;2023-02-28T11:32:28;99993.13;;;1.31
73685;BMP280;61985;51.070;14.064;2023-02-28T11:35:17;99984.66;;;1.08
73685;BMP280;61985;51.070;14.064;2023-02-28T11:37:48;99978.97;;;1.18
73685;BMP280;61985;51.070;14.064;2023-02-28T11:40:15;99980.81;;;1.26
73685;BMP280;61985;51.070;14.064;2023-02-28T11:46:11;99979.97;;;1.35
73685;BMP280;61985;51.070;14.064;2023-02-28T11:51:45;99977.38;;;1.26
73685;BMP280;61985;51.070;14.064;2023-02-28T11:54:23;99971.00;;;1.39
73685;BMP280;61985;51.070;14.064;2023-02-28T11:56:55;99983.13;;;1.49
73685;BMP280;61985;51.070;14.064;2023-02-28T12:02:20;99973.47;;;1.66
73685;BMP280;61985;51.070;14.064;2023-02-28T12:20:33;99979.69;;;2.03
73685;BMP280;61985;51.070;14.064;2023-02-28T12:28:26;99971.31;;;2.13
73685;BMP280;61985;51.070;14.064;2023-02-28T12:30:59;99976.88;;;2.33
73685;BMP280;61985;51.070;14.064;2023-02-28T12:33:32;99979.31;;;2.38
73685;BMP280;61985;51.070;14.064;2023-02-28T12:36:02;99978.22;;;2.27
73685;BMP280;61985;51.070;14.064;2023-02-28T12:38:34;99976.91;;;2.45
73685;BMP280;61985;51.070;14.064;2023-02-28T12:41:05;99975.22;;;2.41
73685;BMP280;61985;51.070;14.064;2023-02-28T12:43:38;99974.66;;;2.35
73685;BMP280;61985;51.070;14.064;2023-02-28T12:46:21;99966.81;;;2.26
73685;BMP280;61985;51.070;14.064;2023-02-28T12:48:48;99971.00;;;2.40
73685;BMP280;61985;51.070;14.064;2023-02-28T12:51:16;99973.00;;;2.43
73685;BMP280;61985;51.070;14.064;2023-02-28T12:56:47;99966.91;;;2.30
73685;BMP280;61985;51.070;14.064;2023-02-28T12:59:32;99960.34;;;2.15
73685;BMP280;61985;51.070;14.064;2023-02-28T13:02:30;99960.03;;;2.29
73685;BMP280;61985;51.070;14.064;2023-02-28T13:05:50;99969.25;;;2.44
73685;BMP280;61985;51.070;14.064;2023-02-28T13:08:03;99955.03;;;2.40
73685;BMP280;61985;51.070;14.064;2023-02-28T13:10:44;99951.38;;;2.44
73685;BMP280;61985;51.070;14.064;2023-02-28T13:13:19;99965.03;;;2.92
73685;BMP280;61985;51.070;14.064;2023-02-28T13:16:03;99958.16;;;2.66
73685;BMP280;61985;51.070;14.064;2023-02-28T13:21:06;99961.00;;;3.11
73685;BMP280;61985;51.070;14.064;2023-02-28T13:26:12;99952.03;;;3.31
73685;BMP280;61985;51.070;14.064;2023-02-28T13:29:01;99950.69;;;3.37
73685;BMP280;61985;51.070;14.064;2023-02-28T13:31:27;99965.97;;;3.24
73685;BMP280;61985;51.070;14.064;2023-02-28T13:36:32;99946.38;;;3.33
73685;BMP280;61985;51.070;14.064;2023-02-28T13:38:59;99957.41;;;3.19
73685;BMP280;61985;51.070;14.064;2023-02-28T13:44:17;99949.06;;;3.61
73685;BMP280;61985;51.070;14.064;2023-02-28T13:49:19;99939.94;;;3.34
73685;BMP280;61985;51.070;14.064;2023-02-28T13:51:47;99935.78;;;3.08
73685;BMP280;61985;51.070;14.064;2023-02-28T13:54:26;99934.13;;;3.16
73685;BMP280;61985;51.070;14.064;2023-02-28T14:02:32;99929.28;;;3.34
73685;BMP280;61985;51.070;14.064;2023-02-28T14:05:19;99932.34;;;3.48
73685;BMP280;61985;51.070;14.064;2023-02-28T14:08:37;99924.88;;;3.54
73685;BMP280;61985;51.070;14.064;2023-02-28T14:10:44;99924.06;;;3.37
73685;BMP280;61985;51.070;14.064;2023-02-28T14:13:41;99918.50;;;3.42
73685;BMP280;61985;51.070;14.064;2023-02-28T14:16:11;99912.94;;;3.63
73685;BMP280;61985;51.070;14.064;2023-02-28T14:18:41;99914.94;;;3.67
73685;BMP280;61985;51.070;14.064;2023-02-28T14:37:47;99902.34;;;3.95
73685;BMP280;61985;51.070;14.064;2023-02-28T14:40:21;99905.00;;;3.95
73685;BMP280;61985;51.070;14.064;2023-02-28T14:43:01;99906.97;;;3.82
73685;BMP280;61985;51.070;14.064;2023-02-28T14:45:33;99896.25;;;3.51
73685;BMP280;61985;51.070;14.064;2023-02-28T14:47:59;99897.94;;;3.43
73685;BMP280;61985;51.070;14.064;2023-02-28T14:50:35;99896.50;;;3.17
73685;BMP280;61985;51.070;14.064;2023-02-28T14:53:01;99897.44;;;3.53
73685;BMP280;61985;51.070;14.064;2023-02-28T14:55:29;99904.09;;;3.31
73685;BMP280;61985;51.070;14.064;2023-02-28T14:57:57;99896.50;;;3.17
73685;BMP280;61985;51.070;14.064;2023-02-28T15:00:29;99901.16;;;3.20
73685;BMP280;61985;51.070;14.064;2023-02-28T15:02:56;99900.03;;;3.21
73685;BMP280;61985;51.070;14.064;2023-02-28T15:08:24;99900.75;;;3.06
73685;BMP280;61985;51.070;14.064;2023-02-28T15:10:57;99904.16;;;3.06
73685;BMP280;61985;51.070;14.064;2023-02-28T15:13:29;99902.03;;;3.24
73685;BMP280;61985;51.070;14.064;2023-02-28T15:15:59;99908.41;;;3.36
73685;BMP280;61985;51.070;14.064;2023-02-28T15:18:48;99902.28;;;3.63
73685;BMP280;61985;51.070;14.064;2023-02-28T15:21:28;99899.47;;;3.88
73685;BMP280;61985;51.070;14.064;2023-02-28T15:23:58;99904.72;;;4.00
73685;BMP280;61985;51.070;14.064;2023-02-28T15:26:32;99903.66;;;3.29
73685;BMP280;61985;51.070;14.064;2023-02-28T15:29:01;99902.47;;;3.26
73685;BMP280;61985;51.070;14.064;2023-02-28T15:31:29;99902.38;;;2.82
73685;BMP280;61985;51.070;14.064;2023-02-28T15:34:03;99905.28;;;2.52
73685;BMP280;61985;51.070;14.064;2023-02-28T15:36:30;99893.75;;;2.24
73685;BMP280;61985;51.070;14.064;2023-02-28T15:38:58;99898.59;;;1.97
73685;BMP280;61985;51.070;14.064;2023-02-28T15:41:29;99903.91;;;1.97
73685;BMP280;61985;51.070;14.064;2023-02-28T15:47:01;99906.88;;;1.83
73685;BMP280;61985;51.070;14.064;2023-02-28T15:49:29;99901.72;;;1.66
73685;BMP280;61985;51.070;14.064;2023-02-28T15:51:59;99894.34;;;1.50
73685;BMP280;61985;51.070;14.064;2023-02-28T15:54:32;99893.91;;;1.48
73685;BMP280;61985;51.070;14.064;2023-02-28T15:57:04;99899.38;;;1.31
73685;BMP280;61985;51.070;14.064;2023-02-28T15:59:33;99893.50;;;1.25
73685;BMP280;61985;51.070;14.064;2023-02-28T16:05:01;99896.31;;;0.99
73685;BMP280;61985;51.070;14.064;2023-02-28T16:07:27;99898.72;;;0.92
73685;BMP280;61985;51.070;14.064;2023-02-28T16:09:53;99887.00;;;0.93
73685;BMP280;61985;51.070;14.064;2023-02-28T16:12:20;99896.41;;;0.90
73685;BMP280;61985;51.070;14.064;2023-02-28T16:14:48;99888.22;;;0.95
73685;BMP280;61985;51.070;14.064;2023-02-28T16:17:22;99885.78;;;0.90
73685;BMP280;61985;51.070;14.064;2023-02-28T16:19:48;99886.00;;;0.76
73685;BMP280;61985;51.070;14.064;2023-02-28T16:22:13;99889.16;;;0.69
73685;BMP280;61985;51.070;14.064;2023-02-28T16:24:39;99880.31;;;0.57
73685;BMP280;61985;51.070;14.064;2023-02-28T16:27:06;99897.09;;;0.40
73685;BMP280;61985;51.070;14.064;2023-02-28T16:29:34;99888.94;;;0.24
73685;BMP280;61985;51.070;14.064;2023-02-28T16:32:00;99894.63;;;-0.13
73685;BMP280;61985;51.070;14.064;2023-02-28T16:34:26;99899.34;;;-0.19
73685;BMP280;61985;51.070;14.064;2023-02-28T16:36:52;99899.94;;;-0.39
73685;BMP280;61985;51.070;14.064;2023-02-28T16:39:19;99900.72;;;-0.39
73685;BMP280;61985;51.070;14.064;2023-02-28T16:41:49;99896.66;;;-0.62
73685;BMP280;61985;51.070;14.064;2023-02-28T16:44:27;99892.63;;;-0.68
73685;BMP280;61985;51.070;14.064;2023-02-28T16:46:53;99892.31;;;-0.76
73685;BMP280;61985;51.070;14.064;2023-02-28T16:49:18;99893.69;;;-0.78
73685;BMP280;61985;51.070;14.064;2023-02-28T16:51:44;99897.75;;;-0.81
73685;BMP280;61985;51.070;14.064;2023-02-28T16:54:09;99895.09;;;-0.81
73685;BMP280;61985;51.070;14.064;2023-02-28T16:56:34;99898.53;;;-0.80
73685;BMP280;61985;51.070;14.064;2023-02-28T16:59:01;99889.50;;;-0.88
73685;BMP280;61985;51.070;14.064;2023-02-28T17:01:27;99898.50;;;-0.98
73685;BMP280;61985;51.070;14.064;2023-02-28T17:03:53;99909.69;;;-1.10
73685;BMP280;61985;51.070;14.064;2023-02-28T17:06:22;99910.13;;;-1.16
73685;BMP280;61985;51.070;14.064;2023-02-28T17:08:51;99904.53;;;-1.15
73685;BMP280;61985;51.070;14.064;2023-02-28T17:11:17;99901.59;;;-1.22
73685;BMP280;61985;51.070;14.064;2023-02-28T17:13:42;99905.91;;;-1.26
73685;BMP280;61985;51.070;14.064;2023-02-28T17:16:35;99908.81;;;-1.36
73685;BMP280;61985;51.070;14.064;2023-02-28T17:19:04;99908.34;;;-1.38
73685;BMP280;61985;51.070;14.064;2023-02-28T17:21:31;99920.81;;;-1.30
73685;BMP280;61985;51.070;14.064;2023-02-28T17:23:56;99915.38;;;-1.34
73685;BMP280;61985;51.070;14.064;2023-02-28T17:26:24;99911.97;;;-1.34
73685;BMP280;61985;51.070;14.064;2023-02-28T17:28:51;99916.09;;;-1.42